sensor_id;sensor_type;location;lat;lon;timestamp;pressure;altitude;pressure_sealevel;temperature;humidity
6680;BME280;3376;42.664;23.346;2022-11-20T00:01:16;93797.63;;;15.83;95.69
6680;BME280;3376;42.664;23.346;2022-11-20T00:03:44;93865.63;;;16.06;96.83
6680;BME280;3376;42.664;23.346;2022-11-20T00:06:13;93859.63;;;15.76;100.00
6680;BME280;3376;42.664;23.346;2022-11-20T00:08:41;93865.41;;;15.66;100.00
6680;BME280;3376;42.664;23.346;2022-11-20T00:11:09;93878.13;;;15.45;100.00
6680;BME280;3376;42.664;23.346;2022-11-20T00:13:36;93877.00;;;15.34;100.00
6680;BME280;3376;42.664;23.346;2022-11-20T00:16:05;93843.75;;;15.29;100.00
6680;BME280;3376;42.664;23.346;2022-11-20T00:18:32;93850.56;;;15.78;95.73
6680;BME280;3376;42.664;23.346;2022-11-20T00:21:03;93847.53;;;16.04;97.13
6680;BME280;3376;42.664;23.346;2022-11-20T00:23:31;93845.06;;;16.09;94.68
6680;BME280;3376;42.664;23.346;2022-11-20T00:26:01;93818.59;;;16.06;98.21
6680;BME280;3376;42.664;23.346;2022-11-20T00:28:29;93850.94;;;16.05;96.94
6680;BME280;3376;42.664;23.346;2022-11-20T00:31:01;93692.19;;;15.31;93.75
6680;BME280;3376;42.664;23.346;2022-11-20T00:33:28;93834.03;;;16.19;94.94
6680;BME280;3376;42.664;23.346;2022-11-20T00:35:59;93824.50;;;16.36;92.41
6680;BME280;3376;42.664;23.346;2022-11-20T00:38:26;93803.03;;;16.57;83.23
6680;BME280;3376;42.664;23.346;2022-11-20T00:40:56;93824.38;;;16.89;85.96
6680;BME280;3376;42.664;23.346;2022-11-20T00:43:23;93827.53;;;16.91;86.52
6680;BME280;3376;42.664;23.346;2022-11-20T00:45:50;93820.41;;;16.86;86.21
6680;BME280;3376;42.664;23.346;2022-11-20T00:48:16;93792.28;;;16.82;86.58
6680;BME280;3376;42.664;23.346;2022-11-20T00:50:43;93856.56;;;16.89;85.46
6680;BME280;3376;42.664;23.346;2022-11-20T00:53:10;93835.25;;;16.97;82.52
6680;BME280;3376;42.664;23.346;2022-11-20T00:55:36;93822.59;;;17.17;77.70
6680;BME280;3376;42.664;23.346;2022-11-20T00:58:05;93826.44;;;17.83;73.26
6680;BME280;3376;42.664;23.346;2022-11-20T01:00:31;93830.13;;;18.15;71.22
6680;BME280;3376;42.664;23.346;2022-11-20T01:02:58;93844.09;;;18.20;73.41
6680;BME280;3376;42.664;23.346;2022-11-20T01:05:25;93815.97;;;17.99;75.03
6680;BME280;3376;42.664;23.346;2022-11-20T01:07:51;93835.97;;;17.89;74.43
6680;BME280;3376;42.664;23.346;2022-11-20T01:10:18;93820.91;;;17.96;73.25
6680;BME280;3376;42.664;23.346;2022-11-20T01:12:45;93853.25;;;18.18;69.42
6680;BME280;3376;42.664;23.346;2022-11-20T01:15:34;93818.53;;;18.44;67.98
6680;BME280;3376;42.664;23.346;2022-11-20T01:18:02;93809.97;;;18.70;66.75
6680;BME280;3376;42.664;23.346;2022-11-20T01:20:28;93817.38;;;18.73;66.20
6680;BME280;3376;42.664;23.346;2022-11-20T01:22:55;93801.56;;;18.90;65.42
6680;BME280;3376;42.664;23.346;2022-11-20T01:25:22;93790.16;;;18.79;66.56
6680;BME280;3376;42.664;23.346;2022-11-20T01:27:49;93798.91;;;18.85;66.32
6680;BME280;3376;42.664;23.346;2022-11-20T01:30:15;93863.25;;;18.87;65.59
6680;BME280;3376;42.664;23.346;2022-11-20T01:32:44;93785.78;;;18.85;64.69
6680;BME280;3376;42.664;23.346;2022-11-20T01:35:10;93808.59;;;18.84;65.53
6680;BME280;3376;42.664;23.346;2022-11-20T01:37:37;93773.84;;;18.77;66.83
6680;BME280;3376;42.664;23.346;2022-11-20T01:40:05;93797.09;;;18.68;67.78
6680;BME280;3376;42.664;23.346;2022-11-20T01:42:32;93782.22;;;18.74;67.78
6680;BME280;3376;42.664;23.346;2022-11-20T01:48:36;93776.88;;;18.31;71.50
6680;BME280;3376;42.664;23.346;2022-11-20T01:51:07;93772.59;;;18.25;71.66
6680;BME280;3376;42.664;23.346;2022-11-20T01:53:37;93766.97;;;18.16;70.96
6680;BME280;3376;42.664;23.346;2022-11-20T01:56:08;93758.88;;;18.39;67.83
6680;BME280;3376;42.664;23.346;2022-11-20T01:58:39;93764.84;;;18.51;67.51
6680;BME280;3376;42.664;23.346;2022-11-20T02:01:08;93772.91;;;18.45;69.27
6680;BME280;3376;42.664;23.346;2022-11-20T02:03:36;93780.59;;;18.35;68.57
6680;BME280;3376;42.664;23.346;2022-11-20T02:06:07;93817.19;;;18.41;68.90
6680;BME280;3376;42.664;23.346;2022-11-20T02:08:36;93757.75;;;18.14;67.36
6680;BME280;3376;42.664;23.346;2022-11-20T02:11:04;93746.28;;;18.36;65.70
6680;BME280;3376;42.664;23.346;2022-11-20T02:13:31;93803.50;;;18.56;68.62
6680;BME280;3376;42.664;23.346;2022-11-20T02:16:11;93792.63;;;18.47;69.06
6680;BME280;3376;42.664;23.346;2022-11-20T02:18:41;93825.13;;;18.30;70.17
6680;BME280;3376;42.664;23.346;2022-11-20T02:21:16;93781.47;;;18.24;68.13
6680;BME280;3376;42.664;23.346;2022-11-20T02:24:00;93793.88;;;18.28;68.27
6680;BME280;3376;42.664;23.346;2022-11-20T02:26:28;93799.06;;;18.23;69.62
6680;BME280;3376;42.664;23.346;2022-11-20T02:28:56;93793.72;;;18.35;67.93
6680;BME280;3376;42.664;23.346;2022-11-20T02:31:24;93782.97;;;18.36;67.76
6680;BME280;3376;42.664;23.346;2022-11-20T02:33:55;93796.75;;;18.43;66.75
6680;BME280;3376;42.664;23.346;2022-11-20T02:36:21;93720.66;;;18.22;65.29
6680;BME280;3376;42.664;23.346;2022-11-20T02:38:49;93818.00;;;18.80;65.13
6680;BME280;3376;42.664;23.346;2022-11-20T02:41:18;93823.06;;;18.87;64.49
6680;BME280;3376;42.664;23.346;2022-11-20T02:43:45;93805.31;;;18.94;64.05
6680;BME280;3376;42.664;23.346;2022-11-20T02:46:11;93815.06;;;18.98;64.32
6680;BME280;3376;42.664;23.346;2022-11-20T02:48:38;93823.50;;;19.00;64.63
6680;BME280;3376;42.664;23.346;2022-11-20T02:51:05;93823.56;;;19.05;64.75
6680;BME280;3376;42.664;23.346;2022-11-20T02:53:31;93817.22;;;19.01;65.24
6680;BME280;3376;42.664;23.346;2022-11-20T02:55:58;93842.44;;;19.02;65.54
6680;BME280;3376;42.664;23.346;2022-11-20T02:58:26;93812.69;;;18.97;66.17
6680;BME280;3376;42.664;23.346;2022-11-20T03:00:53;93822.56;;;18.90;66.81
6680;BME280;3376;42.664;23.346;2022-11-20T03:03:20;93847.31;;;18.94;67.29
6680;BME280;3376;42.664;23.346;2022-11-20T03:05:46;93828.06;;;18.88;68.13
6680;BME280;3376;42.664;23.346;2022-11-20T03:08:13;93843.19;;;18.81;68.56
6680;BME280;3376;42.664;23.346;2022-11-20T03:10:40;93858.31;;;18.74;68.74
6680;BME280;3376;42.664;23.346;2022-11-20T03:13:06;93829.22;;;18.75;69.12
6680;BME280;3376;42.664;23.346;2022-11-20T03:15:35;93797.06;;;18.47;70.24
6680;BME280;3376;42.664;23.346;2022-11-20T03:18:02;93836.44;;;18.68;69.39
6680;BME280;3376;42.664;23.346;2022-11-20T03:20:29;93806.81;;;18.68;68.57
6680;BME280;3376;42.664;23.346;2022-11-20T03:22:56;93856.19;;;18.71;68.91
6680;BME280;3376;42.664;23.346;2022-11-20T03:25:23;93851.66;;;18.66;68.33
6680;BME280;3376;42.664;23.346;2022-11-20T03:27:50;93816.09;;;18.75;68.27
6680;BME280;3376;42.664;23.346;2022-11-20T03:30:17;93834.56;;;18.64;68.68
6680;BME280;3376;42.664;23.346;2022-11-20T03:32:45;93845.88;;;18.64;69.00
6680;BME280;3376;42.664;23.346;2022-11-20T03:35:12;93872.34;;;18.63;68.95
6680;BME280;3376;42.664;23.346;2022-11-20T03:37:38;93839.66;;;18.54;69.45
6680;BME280;3376;42.664;23.346;2022-11-20T03:40:06;93856.34;;;18.48;69.32
6680;BME280;3376;42.664;23.346;2022-11-20T03:42:33;93845.72;;;18.54;69.60
6680;BME280;3376;42.664;23.346;2022-11-20T03:45:13;93858.59;;;18.56;69.41
6680;BME280;3376;42.664;23.346;2022-11-20T03:47:39;93847.47;;;18.49;69.14
6680;BME280;3376;42.664;23.346;2022-11-20T03:50:09;93856.03;;;18.61;69.10
6680;BME280;3376;42.664;23.346;2022-11-20T03:52:37;93864.94;;;18.60;69.22
6680;BME280;3376;42.664;23.346;2022-11-20T03:55:05;93740.28;;;17.86;69.37
6680;BME280;3376;42.664;23.346;2022-11-20T03:57:31;93860.25;;;18.45;69.66
6680;BME280;3376;42.664;23.346;2022-11-20T03:59:58;93857.41;;;18.47;69.47
6680;BME280;3376;42.664;23.346;2022-11-20T04:02:25;93829.81;;;18.44;69.49
6680;BME280;3376;42.664;23.346;2022-11-20T04:04:52;93821.94;;;18.28;69.76
6680;BME280;3376;42.664;23.346;2022-11-20T04:07:20;93851.09;;;18.48;69.61
6680;BME280;3376;42.664;23.346;2022-11-20T04:09:46;93674.91;;;17.30;70.04
6680;BME280;3376;42.664;23.346;2022-11-20T04:12:13;93878.31;;;18.42;69.85
6680;BME280;3376;42.664;23.346;2022-11-20T04:14:40;93900.41;;;18.46;68.85
6680;BME280;3376;42.664;23.346;2022-11-20T04:17:06;93871.63;;;18.51;67.79
6680;BME280;3376;42.664;23.346;2022-11-20T04:19:34;93860.03;;;18.47;68.38
6680;BME280;3376;42.664;23.346;2022-11-20T04:22:01;93878.19;;;18.37;68.47
6680;BME280;3376;42.664;23.346;2022-11-20T04:24:29;93850.16;;;18.37;68.83
6680;BME280;3376;42.664;23.346;2022-11-20T04:26:56;93880.44;;;18.45;68.79
6680;BME280;3376;42.664;23.346;2022-11-20T04:29:23;93872.94;;;18.37;69.07
6680;BME280;3376;42.664;23.346;2022-11-20T04:31:49;93879.22;;;18.36;68.57
6680;BME280;3376;42.664;23.346;2022-11-20T04:34:16;93878.56;;;18.40;69.38
6680;BME280;3376;42.664;23.346;2022-11-20T04:36:43;93865.09;;;18.37;70.10
6680;BME280;3376;42.664;23.346;2022-11-20T04:39:14;93884.47;;;18.36;70.96
6680;BME280;3376;42.664;23.346;2022-11-20T04:41:43;93868.41;;;18.32;71.34
6680;BME280;3376;42.664;23.346;2022-11-20T04:44:10;93862.88;;;18.29;71.48
6680;BME280;3376;42.664;23.346;2022-11-20T04:46:38;93888.44;;;18.22;71.55
6680;BME280;3376;42.664;23.346;2022-11-20T04:49:06;93865.53;;;18.17;71.07
6680;BME280;3376;42.664;23.346;2022-11-20T04:51:33;93860.78;;;18.14;71.49
6680;BME280;3376;42.664;23.346;2022-11-20T04:54:00;93850.94;;;18.21;71.09
6680;BME280;3376;42.664;23.346;2022-11-20T04:56:27;93884.31;;;18.26;71.34
6680;BME280;3376;42.664;23.346;2022-11-20T04:58:55;93854.56;;;18.20;71.56
6680;BME280;3376;42.664;23.346;2022-11-20T05:01:23;93866.34;;;18.18;70.38
6680;BME280;3376;42.664;23.346;2022-11-20T05:03:50;93844.41;;;18.24;70.42
6680;BME280;3376;42.664;23.346;2022-11-20T05:06:19;93852.91;;;18.31;70.27
6680;BME280;3376;42.664;23.346;2022-11-20T05:08:46;93839.66;;;18.21;70.52
6680;BME280;3376;42.664;23.346;2022-11-20T05:11:15;93863.47;;;18.19;70.98
6680;BME280;3376;42.664;23.346;2022-11-20T05:13:42;93860.53;;;18.16;71.19
6680;BME280;3376;42.664;23.346;2022-11-20T05:16:12;93843.94;;;18.10;71.93
6680;BME280;3376;42.664;23.346;2022-11-20T05:18:39;93626.53;;;16.71;72.32
6680;BME280;3376;42.664;23.346;2022-11-20T05:21:07;93848.50;;;17.87;73.47
6680;BME280;3376;42.664;23.346;2022-11-20T05:23:34;93817.22;;;17.97;72.92
6680;BME280;3376;42.664;23.346;2022-11-20T05:26:01;93826.47;;;17.99;73.87
6680;BME280;3376;42.664;23.346;2022-11-20T05:28:29;93794.72;;;17.68;75.55
6680;BME280;3376;42.664;23.346;2022-11-20T05:30:56;93815.72;;;17.84;76.63
6680;BME280;3376;42.664;23.346;2022-11-20T05:33:31;93832.16;;;17.80;76.94
6680;BME280;3376;42.664;23.346;2022-11-20T05:35:58;93812.31;;;17.84;76.33
6680;BME280;3376;42.664;23.346;2022-11-20T05:38:25;93815.22;;;17.71;76.40
6680;BME280;3376;42.664;23.346;2022-11-20T05:40:51;93833.09;;;17.74;76.18
6680;BME280;3376;42.664;23.346;2022-11-20T05:43:18;93848.66;;;17.80;79.06
6680;BME280;3376;42.664;23.346;2022-11-20T05:45:51;93835.63;;;17.69;83.07
6680;BME280;3376;42.664;23.346;2022-11-20T05:48:18;93830.84;;;17.66;82.61
6680;BME280;3376;42.664;23.346;2022-11-20T05:50:47;93822.91;;;17.60;77.98
6680;BME280;3376;42.664;23.346;2022-11-20T05:53:13;93637.53;;;16.45;80.84
6680;BME280;3376;42.664;23.346;2022-11-20T05:55:40;93825.44;;;17.55;83.92
6680;BME280;3376;42.664;23.346;2022-11-20T05:58:07;93822.97;;;17.37;86.21
6680;BME280;3376;42.664;23.346;2022-11-20T06:00:33;93835.31;;;17.25;87.43
6680;BME280;3376;42.664;23.346;2022-11-20T06:03:00;93842.03;;;17.21;90.05
6680;BME280;3376;42.664;23.346;2022-11-20T06:05:27;93839.88;;;17.18;89.77
6680;BME280;3376;42.664;23.346;2022-11-20T06:07:55;93835.78;;;17.22;89.81
6680;BME280;3376;42.664;23.346;2022-11-20T06:10:22;93859.88;;;17.24;89.46
6680;BME280;3376;42.664;23.346;2022-11-20T06:12:49;93831.69;;;17.15;88.91
6680;BME280;3376;42.664;23.346;2022-11-20T06:15:15;93854.22;;;17.16;89.20
6680;BME280;3376;42.664;23.346;2022-11-20T06:18:00;93830.75;;;17.21;88.52
6680;BME280;3376;42.664;23.346;2022-11-20T06:20:26;93832.59;;;17.20;88.38
6680;BME280;3376;42.664;23.346;2022-11-20T06:22:54;93835.84;;;17.39;87.64
6680;BME280;3376;42.664;23.346;2022-11-20T06:25:21;93837.69;;;17.27;88.31
6680;BME280;3376;42.664;23.346;2022-11-20T06:27:48;93865.25;;;17.29;88.85
6680;BME280;3376;42.664;23.346;2022-11-20T06:30:15;93860.94;;;17.23;89.27
6680;BME280;3376;42.664;23.346;2022-11-20T06:32:42;93868.06;;;17.39;88.04
6680;BME280;3376;42.664;23.346;2022-11-20T06:35:09;93863.34;;;17.41;87.83
6680;BME280;3376;42.664;23.346;2022-11-20T06:37:36;93848.69;;;17.40;88.17
6680;BME280;3376;42.664;23.346;2022-11-20T06:40:06;93863.47;;;17.58;86.99
6680;BME280;3376;42.664;23.346;2022-11-20T06:42:33;93861.94;;;17.62;85.80
6680;BME280;3376;42.664;23.346;2022-11-20T06:45:00;93851.72;;;17.60;84.45
6680;BME280;3376;42.664;23.346;2022-11-20T06:47:26;93864.78;;;17.72;84.04
6680;BME280;3376;42.664;23.346;2022-11-20T06:49:53;93859.47;;;17.84;83.49
6680;BME280;3376;42.664;23.346;2022-11-20T06:52:20;93872.84;;;17.99;83.02
6680;BME280;3376;42.664;23.346;2022-11-20T06:54:47;93881.44;;;18.11;82.77
6680;BME280;3376;42.664;23.346;2022-11-20T06:57:15;93862.16;;;18.17;82.12
6680;BME280;3376;42.664;23.346;2022-11-20T06:59:42;93866.66;;;18.38;80.78
6680;BME280;3376;42.664;23.346;2022-11-20T07:02:10;93857.63;;;18.29;80.80
6680;BME280;3376;42.664;23.346;2022-11-20T07:04:37;93891.00;;;18.50;79.99
6680;BME280;3376;42.664;23.346;2022-11-20T07:07:04;93888.84;;;18.63;79.69
6680;BME280;3376;42.664;23.346;2022-11-20T07:09:31;93863.09;;;18.60;78.95
6680;BME280;3376;42.664;23.346;2022-11-20T07:11:58;93882.91;;;18.68;76.26
6680;BME280;3376;42.664;23.346;2022-11-20T07:14:27;93890.84;;;18.40;76.81
6680;BME280;3376;42.664;23.346;2022-11-20T07:16:54;93864.44;;;18.30;78.21
6680;BME280;3376;42.664;23.346;2022-11-20T07:19:20;93899.34;;;18.30;77.56
6680;BME280;3376;42.664;23.346;2022-11-20T07:21:47;93900.84;;;18.26;74.59
6680;BME280;3376;42.664;23.346;2022-11-20T07:24:14;93838.69;;;17.94;74.89
6680;BME280;3376;42.664;23.346;2022-11-20T07:26:41;93897.97;;;18.28;75.62
6680;BME280;3376;42.664;23.346;2022-11-20T07:29:07;93902.22;;;18.29;76.32
6680;BME280;3376;42.664;23.346;2022-11-20T07:31:36;93899.97;;;18.37;76.73
6680;BME280;3376;42.664;23.346;2022-11-20T07:34:02;93846.16;;;18.02;76.89
6680;BME280;3376;42.664;23.346;2022-11-20T07:36:29;93897.88;;;18.23;76.65
6680;BME280;3376;42.664;23.346;2022-11-20T07:38:56;93891.44;;;18.14;77.38
6680;BME280;3376;42.664;23.346;2022-11-20T07:41:22;93893.38;;;18.18;76.74
6680;BME280;3376;42.664;23.346;2022-11-20T07:43:49;93864.91;;;18.10;76.76
6680;BME280;3376;42.664;23.346;2022-11-20T07:46:16;93892.72;;;18.28;77.57
6680;BME280;3376;42.664;23.346;2022-11-20T07:48:44;93893.03;;;18.15;79.12
6680;BME280;3376;42.664;23.346;2022-11-20T07:51:10;93907.00;;;18.04;78.72
6680;BME280;3376;42.664;23.346;2022-11-20T07:53:38;93885.00;;;18.05;76.80
6680;BME280;3376;42.664;23.346;2022-11-20T07:56:06;93858.53;;;17.90;77.51
6680;BME280;3376;42.664;23.346;2022-11-20T07:58:32;93899.13;;;18.04;75.76
6680;BME280;3376;42.664;23.346;2022-11-20T08:01:03;93900.81;;;18.10;75.54
6680;BME280;3376;42.664;23.346;2022-11-20T08:03:30;93863.22;;;17.88;76.33
6680;BME280;3376;42.664;23.346;2022-11-20T08:06:00;93898.75;;;18.12;76.52
6680;BME280;3376;42.664;23.346;2022-11-20T08:08:27;93886.34;;;18.24;76.42
6680;BME280;3376;42.664;23.346;2022-11-20T08:10:53;93866.34;;;18.18;76.37
6680;BME280;3376;42.664;23.346;2022-11-20T08:13:41;93885.13;;;18.43;76.42
6680;BME280;3376;42.664;23.346;2022-11-20T08:16:25;93874.78;;;18.69;75.06
6680;BME280;3376;42.664;23.346;2022-11-20T08:18:52;93873.97;;;18.86;73.93
6680;BME280;3376;42.664;23.346;2022-11-20T08:21:20;93887.47;;;18.94;73.91
6680;BME280;3376;42.664;23.346;2022-11-20T08:23:47;93889.00;;;18.90;72.75
6680;BME280;3376;42.664;23.346;2022-11-20T08:26:13;93889.63;;;18.97;72.55
6680;BME280;3376;42.664;23.346;2022-11-20T08:28:40;93902.00;;;19.02;71.90
6680;BME280;3376;42.664;23.346;2022-11-20T08:31:07;93910.53;;;19.09;71.38
6680;BME280;3376;42.664;23.346;2022-11-20T08:33:35;93914.25;;;19.13;71.12
6680;BME280;3376;42.664;23.346;2022-11-20T08:36:03;93909.78;;;19.30;70.39
6680;BME280;3376;42.664;23.346;2022-11-20T08:38:31;93897.09;;;19.27;71.56
6680;BME280;3376;42.664;23.346;2022-11-20T08:40:58;93901.41;;;19.33;71.73
6680;BME280;3376;42.664;23.346;2022-11-20T08:43:42;93909.19;;;19.28;70.95
6680;BME280;3376;42.664;23.346;2022-11-20T08:46:09;93920.28;;;19.30;70.75
6680;BME280;3376;42.664;23.346;2022-11-20T08:48:36;93930.84;;;19.18;70.77
6680;BME280;3376;42.664;23.346;2022-11-20T08:51:02;93949.63;;;18.89;72.87
6680;BME280;3376;42.664;23.346;2022-11-20T08:53:31;93942.78;;;18.71;76.34
6680;BME280;3376;42.664;23.346;2022-11-20T08:55:57;93916.69;;;18.48;76.54
6680;BME280;3376;42.664;23.346;2022-11-20T08:58:24;93939.84;;;18.67;76.06
6680;BME280;3376;42.664;23.346;2022-11-20T09:00:51;93940.06;;;18.66;76.37
6680;BME280;3376;42.664;23.346;2022-11-20T09:03:18;93941.97;;;18.54;77.00
6680;BME280;3376;42.664;23.346;2022-11-20T09:05:45;93952.38;;;18.49;77.57
6680;BME280;3376;42.664;23.346;2022-11-20T09:08:11;93943.31;;;18.40;78.61
6680;BME280;3376;42.664;23.346;2022-11-20T09:10:39;93947.41;;;18.36;80.94
6680;BME280;3376;42.664;23.346;2022-11-20T09:13:07;93943.03;;;18.25;80.83
6680;BME280;3376;42.664;23.346;2022-11-20T09:15:34;93952.16;;;18.22;81.86
6680;BME280;3376;42.664;23.346;2022-11-20T09:18:02;93952.06;;;18.17;84.58
6680;BME280;3376;42.664;23.346;2022-11-20T09:20:30;93934.44;;;18.13;87.92
6680;BME280;3376;42.664;23.346;2022-11-20T09:22:57;93950.06;;;18.08;89.34
6680;BME280;3376;42.664;23.346;2022-11-20T09:25:24;93764.66;;;16.86;81.68
6680;BME280;3376;42.664;23.346;2022-11-20T09:27:56;93945.84;;;17.79;82.21
6680;BME280;3376;42.664;23.346;2022-11-20T09:30:23;93940.09;;;17.65;87.21
6680;BME280;3376;42.664;23.346;2022-11-20T09:32:50;93939.75;;;17.62;89.68
6680;BME280;3376;42.664;23.346;2022-11-20T09:35:17;93935.84;;;17.76;90.54
6680;BME280;3376;42.664;23.346;2022-11-20T09:37:44;93934.25;;;17.75;86.95
6680;BME280;3376;42.664;23.346;2022-11-20T09:40:19;93888.84;;;17.57;91.79
6680;BME280;3376;42.664;23.346;2022-11-20T09:42:51;93904.25;;;17.82;91.11
6680;BME280;3376;42.664;23.346;2022-11-20T09:45:35;93900.66;;;18.00;91.94
6680;BME280;3376;42.664;23.346;2022-11-20T09:48:18;93909.09;;;18.35;90.66
6680;BME280;3376;42.664;23.346;2022-11-20T09:50:52;93901.59;;;18.71;89.10
6680;BME280;3376;42.664;23.346;2022-11-20T09:53:28;93890.75;;;19.23;88.98
6680;BME280;3376;42.664;23.346;2022-11-20T09:55:57;93881.00;;;19.61;86.65
6680;BME280;3376;42.664;23.346;2022-11-20T09:58:31;93877.69;;;19.71;88.94
6680;BME280;3376;42.664;23.346;2022-11-20T10:01:09;93869.50;;;20.16;83.66
6680;BME280;3376;42.664;23.346;2022-11-20T10:03:41;93888.63;;;21.06;81.93
6680;BME280;3376;42.664;23.346;2022-11-20T10:06:13;93890.66;;;22.28;78.33
6680;BME280;3376;42.664;23.346;2022-11-20T10:08:44;93883.28;;;23.00;70.81
6680;BME280;3376;42.664;23.346;2022-11-20T10:11:17;93902.78;;;23.34;69.87
6680;BME280;3376;42.664;23.346;2022-11-20T10:13:52;93884.41;;;23.68;70.03
6680;BME280;3376;42.664;23.346;2022-11-20T10:16:31;93892.31;;;24.31;64.58
6680;BME280;3376;42.664;23.346;2022-11-20T10:19:14;93889.66;;;24.31;62.78
6680;BME280;3376;42.664;23.346;2022-11-20T10:21:57;93877.50;;;24.25;66.15
6680;BME280;3376;42.664;23.346;2022-11-20T10:24:36;93880.13;;;23.82;64.13
6680;BME280;3376;42.664;23.346;2022-11-20T10:27:21;93866.91;;;22.98;63.50
6680;BME280;3376;42.664;23.346;2022-11-20T10:29:59;93874.56;;;22.39;65.82
6680;BME280;3376;42.664;23.346;2022-11-20T10:32:34;93864.91;;;21.63;71.57
6680;BME280;3376;42.664;23.346;2022-11-20T10:35:05;93856.09;;;21.32;72.29
6680;BME280;3376;42.664;23.346;2022-11-20T10:37:35;93869.72;;;21.19;74.69
6680;BME280;3376;42.664;23.346;2022-11-20T10:40:19;93855.38;;;21.00;75.59
6680;BME280;3376;42.664;23.346;2022-11-20T10:42:50;93880.97;;;21.05;76.40
6680;BME280;3376;42.664;23.346;2022-11-20T10:45:27;93863.63;;;20.72;79.79
6680;BME280;3376;42.664;23.346;2022-11-20T10:48:10;93887.69;;;20.90;76.09
6680;BME280;3376;42.664;23.346;2022-11-20T10:50:40;93820.81;;;20.45;77.06
6680;BME280;3376;42.664;23.346;2022-11-20T10:53:19;93862.91;;;20.45;81.89
6680;BME280;3376;42.664;23.346;2022-11-20T10:55:54;93881.84;;;19.93;83.46
6680;BME280;3376;42.664;23.346;2022-11-20T10:58:28;93887.72;;;19.52;84.31
6680;BME280;3376;42.664;23.346;2022-11-20T11:01:04;93893.97;;;19.08;87.61
6680;BME280;3376;42.664;23.346;2022-11-20T11:03:32;93886.06;;;18.70;93.24
6680;BME280;3376;42.664;23.346;2022-11-20T11:06:04;93915.09;;;18.63;93.74
6680;BME280;3376;42.664;23.346;2022-11-20T11:08:37;93909.13;;;18.51;94.71
6680;BME280;3376;42.664;23.346;2022-11-20T11:11:18;93933.72;;;18.45;98.36
6680;BME280;3376;42.664;23.346;2022-11-20T11:13:45;93940.41;;;18.25;100.00
6680;BME280;3376;42.664;23.346;2022-11-20T11:16:19;93968.59;;;17.50;100.00
6680;BME280;3376;42.664;23.346;2022-11-20T11:18:47;93976.34;;;16.64;87.07
6680;BME280;3376;42.664;23.346;2022-11-20T11:21:21;93951.16;;;16.10;89.82
6680;BME280;3376;42.664;23.346;2022-11-20T11:23:57;93957.56;;;15.85;89.58
6680;BME280;3376;42.664;23.346;2022-11-20T11:26:26;93949.09;;;15.53;94.55
6680;BME280;3376;42.664;23.346;2022-11-20T11:28:54;93942.50;;;15.14;99.00
6680;BME280;3376;42.664;23.346;2022-11-20T11:31:25;93923.53;;;14.83;97.58
6680;BME280;3376;42.664;23.346;2022-11-20T11:34:03;93854.19;;;14.14;100.00
6680;BME280;3376;42.664;23.346;2022-11-20T11:36:32;93946.94;;;14.47;100.00
6680;BME280;3376;42.664;23.346;2022-11-20T11:39:00;93905.19;;;14.29;100.00
6680;BME280;3376;42.664;23.346;2022-11-20T11:41:31;93911.63;;;14.26;100.00
6680;BME280;3376;42.664;23.346;2022-11-20T11:44:03;93890.28;;;14.11;97.31
6680;BME280;3376;42.664;23.346;2022-11-20T11:46:58;93894.88;;;14.09;100.00
6680;BME280;3376;42.664;23.346;2022-11-20T11:49:26;93893.19;;;14.21;100.00
6680;BME280;3376;42.664;23.346;2022-11-20T11:52:04;93966.50;;;14.25;98.78
6680;BME280;3376;42.664;23.346;2022-11-20T11:54:36;93894.34;;;14.32;99.70
6680;BME280;3376;42.664;23.346;2022-11-20T11:57:11;93894.09;;;14.40;100.00
6680;BME280;3376;42.664;23.346;2022-11-20T11:59:46;93894.47;;;14.43;100.00
6680;BME280;3376;42.664;23.346;2022-11-20T12:02:29;93893.56;;;14.31;100.00
6680;BME280;3376;42.664;23.346;2022-11-20T12:05:02;93878.63;;;14.45;97.68
6680;BME280;3376;42.664;23.346;2022-11-20T12:07:38;93863.50;;;14.53;97.98
6680;BME280;3376;42.664;23.346;2022-11-20T12:10:14;93871.34;;;14.47;100.00
6680;BME280;3376;42.664;23.346;2022-11-20T12:12:44;93880.50;;;14.56;96.61
6680;BME280;3376;42.664;23.346;2022-11-20T12:15:19;93885.94;;;14.54;93.86
6680;BME280;3376;42.664;23.346;2022-11-20T12:17:49;93902.38;;;14.55;95.44
6680;BME280;3376;42.664;23.346;2022-11-20T12:20:17;93861.22;;;14.14;100.00
6680;BME280;3376;42.664;23.346;2022-11-20T12:22:50;93885.53;;;14.01;100.00
6680;BME280;3376;42.664;23.346;2022-11-20T12:25:22;93902.59;;;14.29;99.23
6680;BME280;3376;42.664;23.346;2022-11-20T12:28:18;93910.63;;;14.27;100.00
6680;BME280;3376;42.664;23.346;2022-11-20T12:30:55;93909.53;;;14.10;100.00
6680;BME280;3376;42.664;23.346;2022-11-20T12:33:38;93901.63;;;13.92;100.00
6680;BME280;3376;42.664;23.346;2022-11-20T12:36:19;93899.78;;;13.99;100.00
6680;BME280;3376;42.664;23.346;2022-11-20T12:39:01;93867.53;;;14.00;100.00
6680;BME280;3376;42.664;23.346;2022-11-20T12:41:43;93839.47;;;14.02;98.21
6680;BME280;3376;42.664;23.346;2022-11-20T12:44:43;93812.28;;;14.16;99.77
6680;BME280;3376;42.664;23.346;2022-11-20T12:47:38;93795.66;;;14.17;98.91
6680;BME280;3376;42.664;23.346;2022-11-20T12:50:14;93806.06;;;14.17;100.00
6680;BME280;3376;42.664;23.346;2022-11-20T12:52:48;93786.75;;;14.25;100.00
6680;BME280;3376;42.664;23.346;2022-11-20T12:55:30;93814.25;;;14.45;100.00
6680;BME280;3376;42.664;23.346;2022-11-20T12:58:08;93804.25;;;14.42;100.00
6680;BME280;3376;42.664;23.346;2022-11-20T13:00:42;93818.00;;;14.49;100.00
6680;BME280;3376;42.664;23.346;2022-11-20T13:03:38;93814.25;;;14.45;100.00
6680;BME280;3376;42.664;23.346;2022-11-20T13:06:12;93779.44;;;14.15;100.00
6680;BME280;3376;42.664;23.346;2022-11-20T13:08:43;93784.59;;;14.22;100.00
6680;BME280;3376;42.664;23.346;2022-11-20T13:11:17;93807.38;;;14.33;100.00
6680;BME280;3376;42.664;23.346;2022-11-20T13:14:04;93822.78;;;14.34;100.00
6680;BME280;3376;42.664;23.346;2022-11-20T13:16:38;93659.47;;;13.31;100.00
6680;BME280;3376;42.664;23.346;2022-11-20T13:19:10;93863.78;;;14.63;100.00
6680;BME280;3376;42.664;23.346;2022-11-20T13:21:39;93847.34;;;14.63;100.00
6680;BME280;3376;42.664;23.346;2022-11-20T13:24:24;93824.94;;;14.55;100.00
6680;BME280;3376;42.664;23.346;2022-11-20T13:27:20;93799.78;;;14.49;100.00
6680;BME280;3376;42.664;23.346;2022-11-20T13:30:00;93865.38;;;14.46;100.00